Time;durP1;ratioP1;P1;durP2;ratioP2;P2;SDS_P1;SDS_P2;PMS_P1;PMS_P2;Temp;Humidity;BMP_temperature;BMP_pressure;BME280_temperature;BME280_humidity;BME280_pressure;Samples;Min_cycle;Max_cycle;Signal;HPM_P1;HPM_P2
2021/11/22 00:01:32;;;;;;;3.70;3.50;;;;;;;;;;4953235;28;20046;-73
2021/11/22 00:03:58;;;;;;;3.78;3.58;;;;;;;;;;4963186;28;20050;-75
2021/11/22 00:06:24;;;;;;;4.00;3.70;;;;;;;;;;4972290;28;20046;-75
2021/11/22 00:08:49;;;;;;;3.47;3.30;;;;;;;;;;4973567;28;20047;-75
2021/11/22 00:11:15;;;;;;;7.25;3.60;;;;;;;;;;4974784;28;20054;-74
2021/11/22 00:13:41;;;;;;;4.35;4.07;;;;;;;;;;4974417;28;20047;-74
2021/11/22 00:16:06;;;;;;;5.22;4.55;;;;;;;;;;4973601;28;20517;-75
2021/11/22 00:18:32;;;;;;;4.88;2.58;;;;;;;;;;4973909;28;20443;-74
2021/11/22 00:20:57;;;;;;;3.95;3.72;;;;;;;;;;4973957;28;20043;-75
2021/11/22 00:23:23;;;;;;;3.45;3.08;;;;;;;;;;4973527;28;20130;-75
2021/11/22 00:25:48;;;;;;;3.92;3.60;;;;;;;;;;4973871;28;20051;-74
2021/11/22 00:28:14;;;;;;;2.67;2.47;;;;;;;;;;4971737;28;20396;-74
2021/11/22 00:30:40;;;;;;;4.45;4.15;;;;;;;;;;4973238;28;20047;-75
2021/11/22 00:33:08;;;;;;;5.70;5.32;;;;;;;;;;4973867;28;20531;-74
2021/11/22 00:35:33;;;;;;;3.65;3.45;;;;;;;;;;4954966;28;20091;-75
2021/11/22 00:38:05;;;;;;;4.00;3.80;;;;;;;;;;4973226;28;20132;-74
2021/11/22 00:40:32;;;;;;;4.10;3.90;;;;;;;;;;4973505;28;20043;-74
2021/11/22 00:42:58;;;;;;;4.07;3.88;;;;;;;;;;4973181;28;20416;-74
2021/11/22 00:45:26;;;;;;;5.53;5.22;;;;;;;;;;4973139;28;20531;-75
2021/11/22 00:47:52;;;;;;;3.83;3.63;;;;;;;;;;4973365;28;20043;-75
2021/11/22 00:50:17;;;;;;;3.97;3.67;;;;;;;;;;4971715;28;20058;-75
2021/11/22 00:52:43;;;;;;;4.07;3.83;;;;;;;;;;4973522;28;20045;-75
2021/11/22 00:55:09;;;;;;;3.97;3.42;;;;;;;;;;4973854;28;20050;-73
2021/11/22 00:57:35;;;;;;;4.03;3.83;;;;;;;;;;4973320;28;20527;-74
2021/11/22 01:00:00;;;;;;;4.07;3.78;;;;;;;;;;4972821;28;20043;-74
2021/11/22 01:02:27;;;;;;;5.07;3.97;;;;;;;;;;4973121;28;20050;-74
2021/11/22 01:04:52;;;;;;;4.85;4.50;;;;;;;;;;4957521;28;20051;-74
2021/11/22 01:07:18;;;;;;;3.90;3.70;;;;;;;;;;4953571;28;20047;-74
2021/11/22 01:09:44;;;;;;;3.70;3.45;;;;;;;;;;4953574;28;20133;-74
2021/11/22 01:12:10;;;;;;;3.88;3.55;;;;;;;;;;4952473;28;20114;-73
2021/11/22 01:14:36;;;;;;;4.40;4.10;;;;;;;;;;4936005;28;20039;-74
2021/11/22 01:17:02;;;;;;;5.00;3.85;;;;;;;;;;4953687;29;20090;-74
2021/11/22 01:19:28;;;;;;;3.53;3.33;;;;;;;;;;4953602;29;20039;-74
2021/11/22 01:21:53;;;;;;;3.65;3.35;;;;;;;;;;4953308;28;20043;-74
2021/11/22 01:24:19;;;;;;;2.10;2.00;;;;;;;;;;4953837;29;20408;-74
2021/11/22 01:26:44;;;;;;;3.83;3.63;;;;;;;;;;4953436;28;20130;-75
2021/11/22 01:29:10;;;;;;;4.65;4.35;;;;;;;;;;4953197;28;20035;-74
2021/11/22 01:31:36;;;;;;;3.05;2.95;;;;;;;;;;4952524;29;20065;-74
2021/11/22 01:34:01;;;;;;;4.22;3.92;;;;;;;;;;4952451;29;20047;-75
2021/11/22 01:36:27;;;;;;;3.88;3.63;;;;;;;;;;4952586;28;20059;-74
2021/11/22 01:38:53;;;;;;;4.10;3.83;;;;;;;;;;4952681;28;20524;-74
2021/11/22 01:41:18;;;;;;;4.55;4.28;;;;;;;;;;4953136;28;20055;-73
2021/11/22 01:43:44;;;;;;;4.18;3.88;;;;;;;;;;4952748;28;20051;-74
2021/11/22 01:46:19;;;;;;;4.20;3.92;;;;;;;;;;4953320;28;20043;-75
2021/11/22 01:48:46;;;;;;;4.13;3.70;;;;;;;;;;4953343;28;20054;-74
2021/11/22 01:51:11;;;;;;;4.30;3.95;;;;;;;;;;4952662;29;20054;-74
2021/11/22 01:53:37;;;;;;;3.67;3.47;;;;;;;;;;4950750;28;20043;-73
2021/11/22 01:56:03;;;;;;;4.35;4.05;;;;;;;;;;4953131;28;20043;-74
2021/11/22 01:58:29;;;;;;;3.72;3.55;;;;;;;;;;4952525;29;20051;-74
2021/11/22 02:00:55;;;;;;;4.78;3.88;;;;;;;;;;4953028;28;20102;-75
2021/11/22 02:03:22;;;;;;;3.92;3.72;;;;;;;;;;4956095;28;20041;-75
2021/11/22 02:05:51;;;;;;;4.43;4.18;;;;;;;;;;4972390;28;20133;-74
2021/11/22 02:08:18;;;;;;;3.97;3.67;;;;;;;;;;4972268;28;20055;-75
2021/11/22 02:10:45;;;;;;;3.53;3.28;;;;;;;;;;4972086;28;20049;-74
2021/11/22 02:13:11;;;;;;;4.22;4.03;;;;;;;;;;4972185;28;20074;-74
2021/11/22 02:15:37;;;;;;;3.92;3.63;;;;;;;;;;4969438;28;20538;-74
2021/11/22 02:18:04;;;;;;;4.43;4.13;;;;;;;;;;4972353;28;20110;-75
2021/11/22 02:20:30;;;;;;;5.43;4.05;;;;;;;;;;4972335;28;20532;-74
2021/11/22 02:22:59;;;;;;;4.38;4.07;;;;;;;;;;4971609;28;20038;-75
2021/11/22 02:25:26;;;;;;;4.00;3.70;;;;;;;;;;4972302;28;20043;-75
2021/11/22 02:27:52;;;;;;;4.05;3.83;;;;;;;;;;4971938;28;20527;-74
2021/11/22 02:30:20;;;;;;;5.15;4.43;;;;;;;;;;4971580;28;20043;-74
2021/11/22 02:32:47;;;;;;;4.50;4.20;;;;;;;;;;4972342;28;20419;-74
2021/11/22 02:35:20;;;;;;;4.28;3.90;;;;;;;;;;4972019;28;20047;-74
2021/11/22 02:37:46;;;;;;;2.88;2.72;;;;;;;;;;4969786;28;20050;-74
2021/11/22 02:40:12;;;;;;;3.75;3.38;;;;;;;;;;4971422;28;20060;-75
2021/11/22 02:42:42;;;;;;;6.05;4.00;;;;;;;;;;4971675;28;20058;-74
2021/11/22 02:45:15;;;;;;;4.10;3.80;;;;;;;;;;4954201;28;20047;-74
2021/11/22 02:47:41;;;;;;;4.22;3.70;;;;;;;;;;4971829;28;20039;-74
2021/11/22 02:50:09;;;;;;;3.78;3.47;;;;;;;;;;4971838;28;20049;-74
2021/11/22 02:52:35;;;;;;;4.15;3.85;;;;;;;;;;4974908;28;20501;-73
2021/11/22 02:55:01;;;;;;;3.65;3.45;;;;;;;;;;4975813;28;20050;-74
2021/11/22 02:57:27;;;;;;;3.55;3.35;;;;;;;;;;4975321;28;20043;-73
2021/11/22 02:59:54;;;;;;;4.00;3.70;;;;;;;;;;4972387;28;20412;-74
2021/11/22 03:02:19;;;;;;;3.80;3.42;;;;;;;;;;4975405;28;20089;-74
2021/11/22 03:04:45;;;;;;;4.05;3.58;;;;;;;;;;4960934;28;20047;-74
2021/11/22 03:07:12;;;;;;;4.57;4.28;;;;;;;;;;4955719;28;20548;-74
2021/11/22 03:09:38;;;;;;;10.18;4.47;;;;;;;;;;4955819;28;20049;-73
2021/11/22 03:12:11;;;;;;;3.53;3.33;;;;;;;;;;4954718;28;20047;-74
2021/11/22 03:14:37;;;;;;;3.53;3.25;;;;;;;;;;4955123;28;20050;-74
2021/11/22 03:17:03;;;;;;;3.92;3.65;;;;;;;;;;4955694;28;20095;-74
2021/11/22 03:19:29;;;;;;;4.80;4.40;;;;;;;;;;4955722;28;20043;-74
2021/11/22 03:21:55;;;;;;;3.50;3.40;;;;;;;;;;4953520;28;20062;-75
2021/11/22 03:24:20;;;;;;;3.53;3.33;;;;;;;;;;4955847;28;20088;-75
2021/11/22 03:26:47;;;;;;;4.45;3.85;;;;;;;;;;4955563;28;20042;-74
2021/11/22 03:29:13;;;;;;;4.20;3.90;;;;;;;;;;4955147;28;20039;-75
2021/11/22 03:31:40;;;;;;;9.35;4.75;;;;;;;;;;4955496;28;20141;-75
2021/11/22 03:34:09;;;;;;;4.22;3.72;;;;;;;;;;4955408;28;20055;-75
2021/11/22 03:36:34;;;;;;;11.85;4.43;;;;;;;;;;4953647;28;20043;-74
2021/11/22 03:39:05;;;;;;;7.72;3.22;;;;;;;;;;4955332;29;20050;-74
2021/11/22 03:41:32;;;;;;;5.88;3.88;;;;;;;;;;4955073;28;20043;-74
2021/11/22 03:44:10;;;;;;;5.32;4.80;;;;;;;;;;4950335;28;20059;-74
2021/11/22 03:46:38;;;;;;;3.33;3.13;;;;;;;;;;4955171;28;20047;-75
2021/11/22 03:49:05;;;;;;;4.43;4.13;;;;;;;;;;4955309;28;20043;-75
2021/11/22 03:51:31;;;;;;;4.25;3.63;;;;;;;;;;4954930;29;20046;-74
2021/11/22 03:53:57;;;;;;;5.28;4.07;;;;;;;;;;4955272;28;20043;-73
2021/11/22 03:56:22;;;;;;;3.80;3.60;;;;;;;;;;4955067;29;20050;-73
2021/11/22 03:58:48;;;;;;;5.68;5.28;;;;;;;;;;4954536;29;20070;-75
2021/11/22 04:01:13;;;;;;;5.35;4.88;;;;;;;;;;4954555;28;20050;-74
2021/11/22 04:03:40;;;;;;;4.53;4.05;;;;;;;;;;4959893;28;20074;-75
2021/11/22 04:06:06;;;;;;;3.22;3.03;;;;;;;;;;4971537;28;20039;-74
2021/11/22 04:08:31;;;;;;;3.75;3.55;;;;;;;;;;4974016;28;20133;-74
2021/11/22 04:10:57;;;;;;;9.43;5.68;;;;;;;;;;4974063;28;20440;-75
2021/11/22 04:13:23;;;;;;;10.50;4.43;;;;;;;;;;4973068;28;20066;-77
2021/11/22 04:15:49;;;;;;;5.18;3.88;;;;;;;;;;4974015;28;20031;-74
2021/11/22 04:18:14;;;;;;;3.72;3.33;;;;;;;;;;4974063;28;20559;-74
2021/11/22 04:20:41;;;;;;;3.45;3.25;;;;;;;;;;4973488;28;20053;-74
2021/11/22 04:23:08;;;;;;;4.95;3.50;;;;;;;;;;4973885;28;20120;-75
2021/11/22 04:25:34;;;;;;;4.13;2.47;;;;;;;;;;4973244;28;20427;-75
2021/11/22 04:27:59;;;;;;;4.65;4.25;;;;;;;;;;4971135;28;20051;-74
2021/11/22 04:30:25;;;;;;;4.28;3.33;;;;;;;;;;4973453;28;20043;-75
2021/11/22 04:32:50;;;;;;;4.07;3.83;;;;;;;;;;4973498;28;20051;-74
2021/11/22 04:35:16;;;;;;;4.25;3.92;;;;;;;;;;4972997;28;20038;-75
2021/11/22 04:37:42;;;;;;;5.05;4.65;;;;;;;;;;4973141;28;20054;-75
2021/11/22 04:40:13;;;;;;;3.85;3.53;;;;;;;;;;4973543;28;20035;-75
2021/11/22 04:42:39;;;;;;;3.22;3.10;;;;;;;;;;4972860;28;20769;-75
2021/11/22 04:45:05;;;;;;;13.88;4.63;;;;;;;;;;4972598;28;20046;-75
2021/11/22 04:47:32;;;;;;;5.28;4.80;;;;;;;;;;4971501;28;20074;-73
2021/11/22 04:49:57;;;;;;;3.67;3.42;;;;;;;;;;4972714;28;20055;-74
2021/11/22 04:52:23;;;;;;;5.40;5.00;;;;;;;;;;4973152;28;20428;-74
2021/11/22 04:54:49;;;;;;;4.28;3.90;;;;;;;;;;4973417;28;20492;-75
2021/11/22 04:57:15;;;;;;;3.38;3.22;;;;;;;;;;4972772;28;20046;-74
2021/11/22 04:59:43;;;;;;;4.30;3.95;;;;;;;;;;4972975;28;20046;-75
2021/11/22 05:02:10;;;;;;;8.43;4.85;;;;;;;;;;4972816;28;20038;-75
2021/11/22 05:04:37;;;;;;;5.20;3.65;;;;;;;;;;4959438;28;20054;-75
2021/11/22 05:07:03;;;;;;;5.53;4.05;;;;;;;;;;4953658;28;20043;-74
2021/11/22 05:09:29;;;;;;;3.63;3.42;;;;;;;;;;4951205;28;20058;-74
2021/11/22 05:11:55;;;;;;;15.93;4.78;;;;;;;;;;4953173;28;20035;-73
2021/11/22 05:14:20;;;;;;;11.07;3.78;;;;;;;;;;4952260;28;20058;-74
2021/11/22 05:16:46;;;;;;;6.68;4.30;;;;;;;;;;4953566;28;20047;-74
2021/11/22 05:19:13;;;;;;;4.28;3.95;;;;;;;;;;4952733;28;20043;-73
2021/11/22 05:21:39;;;;;;;5.45;3.50;;;;;;;;;;4953131;28;20043;-76
2021/11/22 05:24:06;;;;;;;8.20;3.92;;;;;;;;;;4953261;28;20055;-75
2021/11/22 05:26:32;;;;;;;4.30;3.90;;;;;;;;;;4952197;29;20043;-75
2021/11/22 05:29:03;;;;;;;8.00;4.68;;;;;;;;;;4953033;28;20047;-74
2021/11/22 05:31:28;;;;;;;3.83;3.47;;;;;;;;;;4951236;28;20131;-75
2021/11/22 05:33:54;;;;;;;7.70;4.00;;;;;;;;;;4952576;28;20134;-74
2021/11/22 05:36:20;;;;;;;6.78;3.65;;;;;;;;;;4952902;28;20047;-74
2021/11/22 05:38:46;;;;;;;8.13;4.13;;;;;;;;;;4953093;28;20122;-75
2021/11/22 05:41:12;;;;;;;6.22;3.75;;;;;;;;;;4952426;28;20043;-75
2021/11/22 05:43:37;;;;;;;20.95;4.20;;;;;;;;;;4952672;28;20039;-75
2021/11/22 05:46:05;;;;;;;6.47;3.55;;;;;;;;;;4952754;28;20203;-74
2021/11/22 05:48:31;;;;;;;4.45;4.07;;;;;;;;;;4952225;28;21291;-74
2021/11/22 05:50:59;;;;;;;4.70;4.38;;;;;;;;;;4952868;28;20047;-75
2021/11/22 05:53:25;;;;;;;4.72;3.70;;;;;;;;;;4951046;28;20523;-75
2021/11/22 05:55:52;;;;;;;6.93;6.40;;;;;;;;;;4951179;28;20046;-73
2021/11/22 05:58:19;;;;;;;6.07;3.90;;;;;;;;;;4952895;28;20055;-74
2021/11/22 06:00:46;;;;;;;6.10;5.07;;;;;;;;;;4953196;28;20584;-74
2021/11/22 06:03:12;;;;;;;4.25;3.92;;;;;;;;;;4952741;28;20047;-73
2021/11/22 06:05:38;;;;;;;4.45;3.95;;;;;;;;;;4972038;28;20038;-74
2021/11/22 06:08:05;;;;;;;3.83;3.50;;;;;;;;;;4972165;28;20100;-75
2021/11/22 06:10:30;;;;;;;3.70;3.42;;;;;;;;;;4971311;28;20449;-75
2021/11/22 06:12:56;;;;;;;4.28;3.50;;;;;;;;;;4972059;28;20130;-74
2021/11/22 06:15:23;;;;;;;14.80;5.03;;;;;;;;;;4967875;28;20504;-75
2021/11/22 06:17:48;;;;;;;18.40;5.80;;;;;;;;;;4971560;28;20082;-75
2021/11/22 06:20:14;;;;;;;5.55;4.15;;;;;;;;;;4971592;28;20094;-75
2021/11/22 06:22:40;;;;;;;4.28;3.95;;;;;;;;;;4971884;28;20047;-74
2021/11/22 06:25:06;;;;;;;6.68;4.22;;;;;;;;;;4971183;28;20043;-76
2021/11/22 06:27:32;;;;;;;4.50;4.20;;;;;;;;;;4975338;28;20485;-75
2021/11/22 06:29:57;;;;;;;5.35;4.95;;;;;;;;;;4975487;28;20046;-74
2021/11/22 06:32:27;;;;;;;4.13;3.85;;;;;;;;;;4975392;28;20049;-75
2021/11/22 06:34:56;;;;;;;4.38;4.07;;;;;;;;;;4974397;28;20046;-74
2021/11/22 06:37:25;;;;;;;6.20;4.25;;;;;;;;;;4973201;28;20051;-75
2021/11/22 06:39:51;;;;;;;4.00;3.72;;;;;;;;;;4973405;28;20043;-74
2021/11/22 06:42:19;;;;;;;3.35;3.15;;;;;;;;;;4976051;28;20048;-76
2021/11/22 06:44:46;;;;;;;3.60;3.40;;;;;;;;;;4972450;28;20051;-74
2021/11/22 06:47:12;;;;;;;4.30;4.00;;;;;;;;;;4974615;28;20046;-74
2021/11/22 06:49:38;;;;;;;5.20;4.90;;;;;;;;;;4975287;28;20065;-76
2021/11/22 06:52:03;;;;;;;13.18;4.03;;;;;;;;;;4975268;28;20034;-75
2021/11/22 06:54:29;;;;;;;4.60;4.28;;;;;;;;;;4974922;28;20047;-75
2021/11/22 06:56:55;;;;;;;4.32;4.03;;;;;;;;;;4975220;28;20039;-76
2021/11/22 06:59:20;;;;;;;4.88;4.45;;;;;;;;;;4973316;28;20046;-76
2021/11/22 07:01:46;;;;;;;4.63;4.43;;;;;;;;;;4974312;28;20067;-75
2021/11/22 07:04:12;;;;;;;4.70;4.40;;;;;;;;;;4964660;28;20404;-74
2021/11/22 07:06:37;;;;;;;4.40;4.07;;;;;;;;;;4955526;28;20046;-76
2021/11/22 07:09:04;;;;;;;4.65;4.20;;;;;;;;;;4955547;28;20082;-74
2021/11/22 07:11:30;;;;;;;5.88;4.07;;;;;;;;;;4955212;28;20043;-74
2021/11/22 07:13:56;;;;;;;7.25;3.13;;;;;;;;;;4955459;28;20051;-75
2021/11/22 07:16:22;;;;;;;3.92;3.72;;;;;;;;;;4954369;28;20142;-75
2021/11/22 07:18:47;;;;;;;4.33;2.30;;;;;;;;;;4955209;28;20475;-75
2021/11/22 07:21:13;;;;;;;6.07;5.78;;;;;;;;;;4952947;28;20478;-75
2021/11/22 07:23:39;;;;;;;5.40;4.97;;;;;;;;;;4951403;28;20044;-76
2021/11/22 07:26:04;;;;;;;4.38;4.18;;;;;;;;;;4955728;28;20047;-75
2021/11/22 07:28:30;;;;;;;4.05;3.78;;;;;;;;;;4954995;29;20053;-75
2021/11/22 07:30:56;;;;;;;4.10;3.80;;;;;;;;;;4972986;28;20038;-74
2021/11/22 07:33:22;;;;;;;6.57;3.80;;;;;;;;;;4974176;28;20034;-74
2021/11/22 07:35:48;;;;;;;3.83;3.53;;;;;;;;;;4974428;28;20133;-75
2021/11/22 07:38:14;;;;;;;4.82;4.50;;;;;;;;;;4955008;28;20398;-74
2021/11/22 07:40:41;;;;;;;7.72;4.57;;;;;;;;;;4950554;28;20058;-75
2021/11/22 07:43:07;;;;;;;7.40;5.22;;;;;;;;;;4952904;28;20051;-75
2021/11/22 07:45:34;;;;;;;4.00;3.80;;;;;;;;;;4954347;28;20050;-75
2021/11/22 07:47:59;;;;;;;9.30;4.50;;;;;;;;;;4965096;28;20535;-75
2021/11/22 07:50:27;;;;;;;5.88;3.85;;;;;;;;;;4973241;28;20055;-74
2021/11/22 07:52:53;;;;;;;7.93;4.18;;;;;;;;;;4973819;28;20142;-76
2021/11/22 07:55:21;;;;;;;8.57;5.85;;;;;;;;;;4973589;28;20127;-75
2021/11/22 07:57:46;;;;;;;3.95;3.75;;;;;;;;;;4974087;28;20101;-75
2021/11/22 08:00:13;;;;;;;13.00;4.18;;;;;;;;;;4953578;28;20138;-75
2021/11/22 08:02:39;;;;;;;6.28;4.55;;;;;;;;;;4936249;28;20062;-74
2021/11/22 08:05:06;;;;;;;4.07;3.88;;;;;;;;;;4958639;28;20047;-74
2021/11/22 08:07:32;;;;;;;23.02;3.97;;;;;;;;;;4952647;28;20051;-74
2021/11/22 08:10:03;;;;;;;3.80;3.60;;;;;;;;;;4948751;28;20069;-74
2021/11/22 08:12:31;;;;;;;9.52;3.90;;;;;;;;;;4956546;28;20042;-74
2021/11/22 08:15:04;;;;;;;3.85;3.55;;;;;;;;;;4972402;28;20041;-74
2021/11/22 08:17:30;;;;;;;7.50;4.05;;;;;;;;;;4973163;28;20042;-76
2021/11/22 08:19:57;;;;;;;4.18;3.88;;;;;;;;;;4973673;28;20137;-74
2021/11/22 08:22:24;;;;;;;3.78;3.47;;;;;;;;;;4957068;28;20050;-75
2021/11/22 08:24:52;;;;;;;4.57;3.95;;;;;;;;;;4953247;28;20059;-75
2021/11/22 08:27:19;;;;;;;6.38;4.70;;;;;;;;;;4933324;29;20044;-74
2021/11/22 08:29:45;;;;;;;4.20;3.80;;;;;;;;;;4935111;29;20063;-74
2021/11/22 08:32:10;;;;;;;7.07;5.03;;;;;;;;;;4931882;29;20055;-75
2021/11/22 08:34:36;;;;;;;5.40;4.63;;;;;;;;;;4934799;29;20083;-74
2021/11/22 08:37:03;;;;;;;17.80;4.30;;;;;;;;;;4939071;28;20058;-74
2021/11/22 08:39:28;;;;;;;6.88;5.32;;;;;;;;;;4935704;29;20054;-74
2021/11/22 08:41:54;;;;;;;6.38;4.05;;;;;;;;;;4952815;28;20051;-75
2021/11/22 08:44:19;;;;;;;13.27;4.40;;;;;;;;;;4936356;28;20587;-75
2021/11/22 08:46:47;;;;;;;4.78;4.22;;;;;;;;;;4953804;29;20533;-75
2021/11/22 08:49:13;;;;;;;4.20;3.72;;;;;;;;;;4953513;28;20055;-74
2021/11/22 08:51:40;;;;;;;3.65;3.03;;;;;;;;;;4953621;28;20137;-74
2021/11/22 08:54:05;;;;;;;18.65;4.05;;;;;;;;;;4950360;28;20043;-76
2021/11/22 08:56:32;;;;;;;7.25;3.88;;;;;;;;;;4951586;29;20421;-74
2021/11/22 08:58:57;;;;;;;2.45;2.28;;;;;;;;;;4968132;28;20486;-75
2021/11/22 09:01:23;;;;;;;10.43;3.97;;;;;;;;;;4972490;28;20138;-75
2021/11/22 09:03:51;;;;;;;15.52;4.43;;;;;;;;;;4972233;28;20035;-75
2021/11/22 09:06:19;;;;;;;7.50;5.35;;;;;;;;;;4971097;28;20475;-77
2021/11/22 09:08:45;;;;;;;5.47;3.67;;;;;;;;;;4946670;29;20047;-74
2021/11/22 09:11:10;;;;;;;10.00;3.95;;;;;;;;;;4962836;28;20153;-74
2021/11/22 09:13:36;;;;;;;5.60;3.22;;;;;;;;;;4954246;28;20049;-74
2021/11/22 09:16:01;;;;;;;3.88;3.53;;;;;;;;;;4949832;28;20127;-74
2021/11/22 09:18:27;;;;;;;4.00;3.63;;;;;;;;;;4951967;28;20046;-74
2021/11/22 09:20:53;;;;;;;5.38;4.95;;;;;;;;;;4956907;28;20457;-74
2021/11/22 09:23:18;;;;;;;8.15;2.85;;;;;;;;;;4953713;28;20043;-75
2021/11/22 09:25:45;;;;;;;2.85;2.75;;;;;;;;;;4967175;28;20102;-74
2021/11/22 09:28:10;;;;;;;6.30;3.80;;;;;;;;;;4955160;28;20668;-75
2021/11/22 09:30:36;;;;;;;4.68;4.30;;;;;;;;;;4972561;28;20066;-75
2021/11/22 09:33:04;;;;;;;6.20;3.25;;;;;;;;;;4971852;28;20125;-74
2021/11/22 09:35:30;;;;;;;3.53;3.33;;;;;;;;;;4971331;28;20039;-75
2021/11/22 09:37:56;;;;;;;3.70;3.30;;;;;;;;;;4957900;28;20097;-76
2021/11/22 09:40:22;;;;;;;4.47;3.28;;;;;;;;;;4950363;28;20126;-75
2021/11/22 09:42:48;;;;;;;7.88;4.43;;;;;;;;;;4952992;28;20126;-76
2021/11/22 09:45:16;;;;;;;2.58;2.47;;;;;;;;;;4953301;28;20149;-75
2021/11/22 09:47:42;;;;;;;3.40;3.10;;;;;;;;;;4952589;29;20086;-74
2021/11/22 09:50:08;;;;;;;3.17;2.95;;;;;;;;;;4952870;28;20111;-74
2021/11/22 09:52:34;;;;;;;3.80;3.22;;;;;;;;;;4953171;28;20183;-75
2021/11/22 09:55:00;;;;;;;5.20;3.35;;;;;;;;;;4952535;28;20050;-77
2021/11/22 09:57:25;;;;;;;5.65;3.05;;;;;;;;;;4952953;28;20040;-73
2021/11/22 09:59:51;;;;;;;4.60;4.28;;;;;;;;;;4952734;28;20047;-75
2021/11/22 10:02:16;;;;;;;5.97;3.25;;;;;;;;;;4952190;28;20039;-77
2021/11/22 10:04:42;;;;;;;3.33;3.08;;;;;;;;;;4950183;28;20051;-75
2021/11/22 10:07:10;;;;;;;4.78;3.28;;;;;;;;;;4952684;29;20206;-75
2021/11/22 10:09:45;;;;;;;6.13;3.25;;;;;;;;;;4952393;28;20047;-75
2021/11/22 10:12:23;;;;;;;2.60;2.50;;;;;;;;;;4952648;28;20043;-75
2021/11/22 10:14:58;;;;;;;3.60;2.72;;;;;;;;;;4952820;28;20053;-75
2021/11/22 10:17:39;;;;;;;4.60;3.55;;;;;;;;;;4971021;28;20149;-74
2021/11/22 10:20:10;;;;;;;3.78;3.53;;;;;;;;;;4971401;28;20543;-75
2021/11/22 10:22:51;;;;;;;4.55;2.80;;;;;;;;;;4971351;28;20125;-75
2021/11/22 10:25:32;;;;;;;3.30;3.10;;;;;;;;;;4971502;28;20071;-74
2021/11/22 10:28:25;;;;;;;3.80;3.53;;;;;;;;;;4969208;28;20046;-74
2021/11/22 10:30:52;;;;;;;3.25;3.03;;;;;;;;;;4968175;28;20055;-74
2021/11/22 10:33:22;;;;;;;4.38;3.95;;;;;;;;;;4971180;28;20043;-76
2021/11/22 10:35:53;;;;;;;3.78;3.47;;;;;;;;;;4970576;28;20042;-76
2021/11/22 10:38:23;;;;;;;3.25;3.03;;;;;;;;;;4971562;28;20050;-76
2021/11/22 10:40:56;;;;;;;3.67;3.47;;;;;;;;;;4970726;28;20094;-75
2021/11/22 10:43:22;;;;;;;2.88;2.72;;;;;;;;;;4971471;28;20050;-76
2021/11/22 10:45:50;;;;;;;3.20;3.00;;;;;;;;;;4971956;28;20043;-76
2021/11/22 10:48:29;;;;;;;3.88;3.67;;;;;;;;;;4971056;28;20496;-77
2021/11/22 10:51:06;;;;;;;4.03;3.67;;;;;;;;;;4968886;28;20134;-75
2021/11/22 10:53:38;;;;;;;4.45;4.05;;;;;;;;;;4971515;28;20039;-74
2021/11/22 10:56:09;;;;;;;5.50;2.95;;;;;;;;;;4970635;28;20053;-76
2021/11/22 10:58:49;;;;;;;2.63;1.88;;;;;;;;;;4971887;28;20547;-76
2021/11/22 11:01:30;;;;;;;5.43;3.30;;;;;;;;;;4971755;28;20051;-75
2021/11/22 11:04:07;;;;;;;3.00;2.90;;;;;;;;;;4970253;28;20504;-75
2021/11/22 11:06:45;;;;;;;3.28;3.10;;;;;;;;;;4971632;28;20043;-74
2021/11/22 11:09:22;;;;;;;3.60;3.42;;;;;;;;;;4970769;28;20047;-76
2021/11/22 11:11:53;;;;;;;3.80;3.50;;;;;;;;;;4971518;28;20051;-78
2021/11/22 11:14:19;;;;;;;2.85;2.75;;;;;;;;;;4956629;28;20047;-76
2021/11/22 11:16:45;;;;;;;3.28;3.08;;;;;;;;;;4955214;28;20085;-75
2021/11/22 11:19:13;;;;;;;3.70;3.40;;;;;;;;;;4955376;28;20142;-75
2021/11/22 11:21:45;;;;;;;5.15;3.00;;;;;;;;;;4954096;28;20137;-77
2021/11/22 11:24:12;;;;;;;3.72;3.42;;;;;;;;;;4955284;28;20047;-75
2021/11/22 11:26:39;;;;;;;3.72;3.00;;;;;;;;;;4955483;29;20818;-75
2021/11/22 11:29:06;;;;;;;5.18;4.97;;;;;;;;;;4952713;28;20476;-76
2021/11/22 11:31:34;;;;;;;3.45;2.92;;;;;;;;;;4956115;28;20067;-76
2021/11/22 11:34:07;;;;;;;5.07;3.33;;;;;;;;;;4938431;29;20043;-76
2021/11/22 11:36:49;;;;;;;3.38;3.15;;;;;;;;;;4965402;28;20054;-76
2021/11/22 11:39:32;;;;;;;1.80;1.70;;;;;;;;;;4974277;28;20519;-78
2021/11/22 11:42:36;;;;;;;5.20;3.22;;;;;;;;;;4957026;28;20404;-77
2021/11/22 11:45:13;;;;;;;4.20;3.55;;;;;;;;;;4972686;28;20098;-78
2021/11/22 11:48:11;;;;;;;4.70;3.08;;;;;;;;;;4969757;28;20055;-76
2021/11/22 11:50:41;;;;;;;3.03;2.85;;;;;;;;;;4879161;29;20500;-76
2021/11/22 11:53:09;;;;;;;4.22;3.83;;;;;;;;;;4936901;29;20102;-75
2021/11/22 11:55:36;;;;;;;4.35;3.75;;;;;;;;;;4953795;28;20043;-76
2021/11/22 11:58:20;;;;;;;6.72;3.85;;;;;;;;;;4953198;28;20078;-76
2021/11/22 12:01:11;;;;;;;4.03;3.65;;;;;;;;;;4953244;28;20043;-76
2021/11/22 12:04:04;;;;;;;3.17;2.97;;;;;;;;;;4932012;29;20051;-76
2021/11/22 12:06:50;;;;;;;5.47;3.92;;;;;;;;;;4941016;28;20493;-77
2021/11/22 12:09:34;;;;;;;4.05;3.75;;;;;;;;;;4973837;28;20058;-76
2021/11/22 12:12:22;;;;;;;5.78;3.58;;;;;;;;;;4974228;28;20038;-78
2021/11/22 12:14:57;;;;;;;4.80;4.22;;;;;;;;;;4973618;28;20480;-79
2021/11/22 12:17:34;;;;;;;5.53;4.28;;;;;;;;;;4974038;28;20030;-78
2021/11/22 12:20:07;;;;;;;6.07;3.47;;;;;;;;;;4959445;28;20130;-76
2021/11/22 12:22:43;;;;;;;4.43;4.07;;;;;;;;;;4934229;28;20207;-75
2021/11/22 12:25:29;;;;;;;8.65;4.05;;;;;;;;;;4954465;28;20789;-76
2021/11/22 12:27:54;;;;;;;11.00;4.88;;;;;;;;;;4954402;28;20086;-76
2021/11/22 12:30:29;;;;;;;5.20;4.80;;;;;;;;;;4953427;28;20081;-77
2021/11/22 12:33:20;;;;;;;5.60;4.22;;;;;;;;;;4934840;29;20069;-77
2021/11/22 12:35:47;;;;;;;4.22;3.95;;;;;;;;;;4954921;28;20051;-76
2021/11/22 12:38:22;;;;;;;4.25;3.92;;;;;;;;;;4958785;28;20125;-77
2021/11/22 12:40:50;;;;;;;7.78;5.15;;;;;;;;;;4971573;28;20105;-75
2021/11/22 12:43:35;;;;;;;5.28;4.57;;;;;;;;;;4957710;28;20126;-77
2021/11/22 12:46:00;;;;;;;4.63;4.22;;;;;;;;;;4951694;28;20047;-76
2021/11/22 12:48:34;;;;;;;4.03;3.70;;;;;;;;;;4963705;28;20042;-76
2021/11/22 12:51:03;;;;;;;4.72;4.43;;;;;;;;;;4973010;28;20046;-75
2021/11/22 12:53:29;;;;;;;4.05;3.85;;;;;;;;;;4956047;28;20393;-76
2021/11/22 12:55:55;;;;;;;3.70;3.42;;;;;;;;;;4972931;28;20062;-77
2021/11/22 12:58:30;;;;;;;3.83;3.63;;;;;;;;;;4972758;28;20039;-75
2021/11/22 13:00:57;;;;;;;4.32;3.95;;;;;;;;;;4960341;28;20361;-76
2021/11/22 13:03:24;;;;;;;4.22;3.78;;;;;;;;;;4951673;28;20039;-77
2021/11/22 13:06:04;;;;;;;3.70;3.50;;;;;;;;;;4953827;28;20047;-76
2021/11/22 13:08:36;;;;;;;4.35;4.05;;;;;;;;;;4951372;28;20050;-75
2021/11/22 13:11:06;;;;;;;4.78;4.43;;;;;;;;;;4952750;28;20097;-76
2021/11/22 13:16:13;;;;;;;5.13;4.45;;;;;;;;;;4953700;28;20071;-77
2021/11/22 13:18:46;;;;;;;7.18;4.95;;;;;;;;;;4936061;29;20046;-76
2021/11/22 13:21:15;;;;;;;5.35;4.85;;;;;;;;;;4953324;28;20047;-76
2021/11/22 13:23:42;;;;;;;3.92;3.70;;;;;;;;;;4953266;28;20050;-76
2021/11/22 13:26:16;;;;;;;4.45;4.15;;;;;;;;;;4952654;28;20054;-76
2021/11/22 13:28:51;;;;;;;4.15;3.90;;;;;;;;;;4952357;28;20066;-76
2021/11/22 13:31:18;;;;;;;4.72;4.43;;;;;;;;;;4952092;28;20035;-76
2021/11/22 13:33:46;;;;;;;4.63;4.22;;;;;;;;;;4952434;28;20074;-78
2021/11/22 13:36:12;;;;;;;3.72;3.53;;;;;;;;;;4955114;28;20050;-76
2021/11/22 13:38:41;;;;;;;5.05;4.38;;;;;;;;;;4972163;28;20273;-76
2021/11/22 13:41:18;;;;;;;4.13;3.83;;;;;;;;;;4971699;28;20260;-78
2021/11/22 13:43:46;;;;;;;4.85;4.53;;;;;;;;;;4972510;28;20038;-75
2021/11/22 13:46:14;;;;;;;5.60;4.50;;;;;;;;;;4971010;28;20133;-76
2021/11/22 13:48:57;;;;;;;8.05;5.75;;;;;;;;;;4972033;28;20038;-76
2021/11/22 13:51:33;;;;;;;3.38;3.08;;;;;;;;;;4971968;28;20420;-77
2021/11/22 13:54:02;;;;;;;6.40;5.50;;;;;;;;;;4971848;28;20047;-76
2021/11/22 13:56:38;;;;;;;7.55;4.47;;;;;;;;;;4967809;28;20034;-77
2021/11/22 13:59:18;;;;;;;6.45;4.15;;;;;;;;;;4972246;28;20468;-77
2021/11/22 14:01:50;;;;;;;4.88;3.58;;;;;;;;;;4972003;28;20420;-76
2021/11/22 14:04:17;;;;;;;6.50;5.93;;;;;;;;;;4971737;28;20492;-75
2021/11/22 14:06:43;;;;;;;6.55;4.75;;;;;;;;;;4971834;28;20126;-75
2021/11/22 14:09:09;;;;;;;5.20;4.78;;;;;;;;;;4971779;28;20038;-76
2021/11/22 14:11:35;;;;;;;4.72;4.40;;;;;;;;;;4971377;28;20050;-76
2021/11/22 14:14:13;;;;;;;4.78;4.35;;;;;;;;;;4971931;28;20393;-76
2021/11/22 14:16:38;;;;;;;4.70;4.32;;;;;;;;;;4970529;28;20043;-77
2021/11/22 14:19:13;;;;;;;5.28;4.00;;;;;;;;;;4968706;28;20376;-77
2021/11/22 14:21:39;;;;;;;4.20;3.85;;;;;;;;;;4972043;28;20041;-75
2021/11/22 14:24:23;;;;;;;5.38;4.68;;;;;;;;;;4972202;28;20038;-76
2021/11/22 14:26:57;;;;;;;4.90;4.43;;;;;;;;;;4971705;28;20043;-77
2021/11/22 14:29:24;;;;;;;4.75;4.13;;;;;;;;;;4971788;28;20058;-76
2021/11/22 14:31:53;;;;;;;6.45;5.90;;;;;;;;;;4954028;28;20042;-76
2021/11/22 14:34:24;;;;;;;6.60;5.00;;;;;;;;;;4971163;28;20047;-76
2021/11/22 14:36:53;;;;;;;4.40;4.05;;;;;;;;;;4947129;29;20046;-77
2021/11/22 14:39:26;;;;;;;8.10;4.32;;;;;;;;;;4952733;28;20047;-76
2021/11/22 14:41:52;;;;;;;6.43;4.90;;;;;;;;;;4950293;28;20039;-77
2021/11/22 14:44:19;;;;;;;6.20;5.15;;;;;;;;;;4952161;28;20043;-75
2021/11/22 14:46:50;;;;;;;4.78;4.38;;;;;;;;;;4953325;28;20512;-75
2021/11/22 14:49:16;;;;;;;14.35;5.70;;;;;;;;;;4938724;29;20062;-75
2021/11/22 14:51:45;;;;;;;11.27;6.13;;;;;;;;;;4955174;28;20039;-77
2021/11/22 14:54:17;;;;;;;5.85;5.35;;;;;;;;;;4956158;28;20047;-74